Time;durP1;ratioP1;P1;durP2;ratioP2;P2;SDS_P1;SDS_P2;PMS_P1;PMS_P2;Temp;Humidity;BMP_temperature;BMP_pressure;BME280_temperature;BME280_humidity;BME280_pressure;Samples;Min_cycle;Max_cycle;Signal;HPM_P1;HPM_P2
2023/10/31 00:02:16;;;;;;;6.10;1.83;;;10.50;99.90;;;;;;4888824;29;20048;-82
2023/10/31 00:04:42;;;;;;;5.95;1.58;;;10.50;99.90;;;;;;4873440;29;20048;-82
2023/10/31 00:07:08;;;;;;;7.32;2.08;;;10.50;99.90;;;;;;4888861;29;20049;-82
2023/10/31 00:09:33;;;;;;;5.70;1.70;;;10.50;99.90;;;;;;4889395;29;20107;-83
2023/10/31 00:11:59;;;;;;;6.90;1.80;;;10.50;99.90;;;;;;4887725;29;20147;-82
2023/10/31 00:14:25;;;;;;;5.85;1.52;;;10.50;99.90;;;;;;4888401;29;20072;-83
2023/10/31 00:16:51;;;;;;;3.22;1.35;;;10.50;99.90;;;;;;4904419;29;20071;-83
2023/10/31 00:19:17;;;;;;;4.30;1.30;;;10.50;99.90;;;;;;4842233;29;20029;-83
2023/10/31 00:21:42;;;;;;;5.35;1.40;;;10.50;99.90;;;;;;4903342;29;20262;-83
2023/10/31 00:24:08;;;;;;;2.80;1.23;;;10.50;99.90;;;;;;4878989;29;20105;-83
2023/10/31 00:26:34;;;;;;;4.43;1.40;;;10.50;99.90;;;;;;4861165;29;20120;-84
2023/10/31 00:28:59;;;;;;;4.40;1.52;;;10.40;99.90;;;;;;4860211;29;20055;-84
2023/10/31 00:31:25;;;;;;;8.68;1.90;;;10.40;99.90;;;;;;4854324;29;20060;-84
2023/10/31 00:33:51;;;;;;;4.18;1.35;;;10.40;99.90;;;;;;4876094;29;20081;-84
2023/10/31 00:36:17;;;;;;;5.07;1.40;;;10.40;99.90;;;;;;4876354;29;20548;-83
2023/10/31 00:38:42;;;;;;;3.30;1.30;;;10.40;99.90;;;;;;4877688;29;20110;-84
2023/10/31 00:41:08;;;;;;;3.03;1.45;;;10.40;99.90;;;;;;4874975;29;20502;-83
2023/10/31 00:43:34;;;;;;;8.60;1.70;;;10.40;99.90;;;;;;4859488;29;20037;-83
2023/10/31 00:45:59;;;;;;;6.15;1.90;;;10.50;99.90;;;;;;4854244;29;20180;-84
2023/10/31 00:48:25;;;;;;;7.55;1.90;;;10.50;99.90;;;;;;4890348;29;20097;-84
2023/10/31 00:50:51;;;;;;;5.97;2.05;;;10.50;99.90;;;;;;4895291;29;20064;-84
2023/10/31 00:53:17;;;;;;;5.70;1.92;;;10.50;99.90;;;;;;4873604;29;20053;-84
2023/10/31 00:55:44;;;;;;;4.63;1.85;;;10.50;99.90;;;;;;4862637;29;20036;-84
2023/10/31 00:58:09;;;;;;;5.50;1.83;;;10.50;99.90;;;;;;4863124;29;20123;-85
2023/10/31 01:00:37;;;;;;;3.47;1.50;;;10.40;99.90;;;;;;4859541;29;20507;-84
2023/10/31 01:03:03;;;;;;;4.13;1.30;;;10.50;99.90;;;;;;4887294;29;20045;-85
2023/10/31 01:05:29;;;;;;;4.53;1.48;;;10.50;99.90;;;;;;4876536;29;20045;-85
2023/10/31 01:07:55;;;;;;;3.85;1.20;;;10.50;99.90;;;;;;4859961;29;20097;-85
2023/10/31 01:10:21;;;;;;;3.28;1.30;;;10.40;99.90;;;;;;4875300;29;20080;-84
2023/10/31 01:12:47;;;;;;;4.20;1.30;;;10.40;99.90;;;;;;4855578;29;20044;-85
2023/10/31 01:15:13;;;;;;;2.35;1.00;;;10.40;99.90;;;;;;4890603;29;20045;-85
2023/10/31 01:17:38;;;;;;;5.20;1.35;;;10.40;99.90;;;;;;4860082;29;20048;-85
2023/10/31 01:20:06;;;;;;;4.13;1.20;;;10.40;99.90;;;;;;4872955;29;20045;-84
2023/10/31 01:22:32;;;;;;;4.95;1.50;;;10.40;99.90;;;;;;4875263;29;20598;-85
2023/10/31 01:24:58;;;;;;;3.05;1.25;;;10.40;99.90;;;;;;4873110;29;20052;-85
2023/10/31 01:27:23;;;;;;;1.70;1.05;;;10.40;99.90;;;;;;4874197;29;20375;-85
2023/10/31 01:29:49;;;;;;;2.90;1.15;;;10.30;99.90;;;;;;4859377;29;20040;-85
2023/10/31 01:32:15;;;;;;;3.75;1.10;;;10.30;99.90;;;;;;4860143;29;20083;-85
2023/10/31 01:34:40;;;;;;;2.70;1.20;;;10.30;99.90;;;;;;4856771;29;20452;-85
2023/10/31 01:37:06;;;;;;;3.75;1.25;;;10.30;99.90;;;;;;4872740;29;20568;-85
2023/10/31 01:39:32;;;;;;;4.43;1.38;;;10.30;99.90;;;;;;4887746;29;20054;-85
2023/10/31 01:41:58;;;;;;;5.32;1.40;;;10.30;99.90;;;;;;4874005;29;20059;-85
2023/10/31 01:44:23;;;;;;;3.67;1.38;;;10.30;99.90;;;;;;4859017;29;20036;-83
2023/10/31 01:46:49;;;;;;;6.40;1.60;;;10.30;99.90;;;;;;4871372;29;20089;-84
2023/10/31 01:49:15;;;;;;;5.50;1.35;;;10.30;99.90;;;;;;4857695;29;20043;-84
2023/10/31 01:51:41;;;;;;;3.65;1.30;;;10.30;99.90;;;;;;4856452;29;20033;-83
2023/10/31 01:54:10;;;;;;;5.20;1.33;;;10.20;99.90;;;;;;4873165;29;20040;-84
2023/10/31 01:56:36;;;;;;;3.88;1.40;;;10.20;99.90;;;;;;4873799;29;20032;-84
2023/10/31 01:59:02;;;;;;;3.05;1.25;;;10.20;99.90;;;;;;4874375;29;20063;-84
2023/10/31 02:01:28;;;;;;;4.22;1.40;;;10.20;99.90;;;;;;4858474;29;20040;-83
2023/10/31 02:03:54;;;;;;;2.08;0.98;;;10.20;99.90;;;;;;4861070;29;20045;-84
2023/10/31 02:06:21;;;;;;;3.15;1.50;;;10.30;99.90;;;;;;4873352;29;20058;-84
2023/10/31 02:08:48;;;;;;;4.95;1.27;;;10.20;99.90;;;;;;4873119;29;20059;-84
2023/10/31 02:11:13;;;;;;;4.45;1.27;;;10.20;99.90;;;;;;4859698;29;20100;-84
2023/10/31 02:13:39;;;;;;;5.07;1.63;;;10.20;99.90;;;;;;4889526;29;20040;-84
2023/10/31 02:16:05;;;;;;;4.25;1.55;;;10.20;99.90;;;;;;4842393;29;20040;-84
2023/10/31 02:18:31;;;;;;;3.80;1.30;;;10.10;99.90;;;;;;4871457;29;20123;-84
2023/10/31 02:20:57;;;;;;;1.70;0.95;;;10.10;99.90;;;;;;4873373;29;20041;-84
2023/10/31 02:23:23;;;;;;;2.78;1.10;;;10.10;99.90;;;;;;4843118;29;20135;-84
2023/10/31 02:25:49;;;;;;;2.85;1.10;;;10.10;99.90;;;;;;4858855;29;20127;-83
2023/10/31 02:28:14;;;;;;;5.05;1.40;;;10.20;99.90;;;;;;4850482;29;20036;-84
2023/10/31 02:30:41;;;;;;;3.22;1.33;;;10.10;99.90;;;;;;4852361;29;20152;-84
2023/10/31 02:33:06;;;;;;;3.30;1.40;;;10.10;99.90;;;;;;4874983;29;20126;-84
2023/10/31 02:35:32;;;;;;;2.60;1.25;;;10.10;99.90;;;;;;4860350;29;20564;-84
2023/10/31 02:37:58;;;;;;;3.75;1.40;;;10.10;99.90;;;;;;4869343;29;20595;-85
2023/10/31 02:40:24;;;;;;;2.85;1.13;;;10.10;99.90;;;;;;4854540;29;20048;-84
2023/10/31 02:42:49;;;;;;;2.78;1.15;;;10.00;99.90;;;;;;4859816;29;20491;-84
2023/10/31 02:45:15;;;;;;;1.65;1.08;;;10.00;99.90;;;;;;4853931;29;20109;-84
2023/10/31 02:47:41;;;;;;;4.35;1.48;;;10.00;99.90;;;;;;4874668;29;20032;-85
2023/10/31 02:50:07;;;;;;;4.47;1.60;;;10.00;99.90;;;;;;4857264;29;20044;-84
2023/10/31 02:52:33;;;;;;;4.43;1.33;;;10.00;99.90;;;;;;4858029;29;20048;-84
2023/10/31 02:54:58;;;;;;;4.57;1.23;;;10.00;99.90;;;;;;4875458;29;20055;-84
2023/10/31 02:57:24;;;;;;;2.83;1.20;;;10.00;99.90;;;;;;4874444;29;20048;-83
2023/10/31 02:59:50;;;;;;;4.25;1.50;;;10.00;99.90;;;;;;4854606;29;20092;-83
2023/10/31 03:02:15;;;;;;;5.55;1.40;;;10.00;99.90;;;;;;4854800;29;21239;-84
2023/10/31 03:04:41;;;;;;;6.30;1.60;;;10.10;99.90;;;;;;4890178;29;20480;-84
2023/10/31 03:07:07;;;;;;;5.18;1.60;;;10.10;99.90;;;;;;4860527;29;20045;-84
2023/10/31 03:09:33;;;;;;;6.03;1.65;;;10.10;99.90;;;;;;4857500;29;20690;-84
2023/10/31 03:11:58;;;;;;;3.72;1.35;;;10.10;99.90;;;;;;4851601;29;20074;-84
2023/10/31 03:14:25;;;;;;;5.15;1.40;;;10.10;99.90;;;;;;4858965;29;20530;-83
2023/10/31 03:16:50;;;;;;;3.38;1.30;;;10.10;99.90;;;;;;4888956;29;20135;-83
2023/10/31 03:19:16;;;;;;;5.97;1.80;;;10.10;99.90;;;;;;4872150;29;20581;-84
2023/10/31 03:21:42;;;;;;;6.25;1.52;;;10.10;99.90;;;;;;4872350;29;20051;-83
2023/10/31 03:24:08;;;;;;;4.20;1.50;;;10.10;99.90;;;;;;4853725;29;20156;-83
2023/10/31 03:26:33;;;;;;;5.25;1.45;;;10.10;99.90;;;;;;4872046;29;20044;-84
2023/10/31 03:28:59;;;;;;;4.90;1.45;;;10.20;99.90;;;;;;4859726;29;20045;-83
2023/10/31 03:31:25;;;;;;;6.05;1.98;;;10.10;99.90;;;;;;4872312;29;20052;-84
2023/10/31 03:33:51;;;;;;;4.72;1.70;;;10.20;99.90;;;;;;4891012;29;20052;-83
2023/10/31 03:36:17;;;;;;;4.60;1.63;;;10.20;99.90;;;;;;4845054;29;20044;-83
2023/10/31 03:38:43;;;;;;;7.22;1.52;;;10.20;99.90;;;;;;4874637;29;20051;-83
2023/10/31 03:41:09;;;;;;;5.70;1.65;;;10.20;99.90;;;;;;4870532;29;20045;-83
2023/10/31 03:43:35;;;;;;;4.82;1.60;;;10.20;99.90;;;;;;4856932;29;20040;-83
2023/10/31 03:46:00;;;;;;;5.38;1.88;;;10.20;99.90;;;;;;4857190;29;20102;-83
2023/10/31 03:48:26;;;;;;;4.80;1.60;;;10.10;99.90;;;;;;4873166;29;20523;-83
2023/10/31 03:50:52;;;;;;;4.93;1.77;;;10.20;99.90;;;;;;4857469;29;20060;-83
2023/10/31 03:53:18;;;;;;;5.75;2.10;;;10.20;99.90;;;;;;4872198;29;20040;-82
2023/10/31 03:55:44;;;;;;;6.20;2.10;;;10.20;99.90;;;;;;4873608;29;20064;-83
2023/10/31 03:58:10;;;;;;;6.07;2.05;;;10.10;99.90;;;;;;4874011;29;20127;-83
2023/10/31 04:00:35;;;;;;;6.82;1.98;;;10.20;99.90;;;;;;4873677;29;20040;-83
2023/10/31 04:03:01;;;;;;;6.47;2.08;;;10.10;99.90;;;;;;4891274;29;20116;-83
2023/10/31 04:05:27;;;;;;;5.70;2.20;;;10.10;99.90;;;;;;4858621;29;20033;-83
2023/10/31 04:07:52;;;;;;;8.63;2.85;;;10.20;99.90;;;;;;4869928;29;20503;-84
2023/10/31 04:10:18;;;;;;;6.40;2.72;;;10.20;99.90;;;;;;4872405;29;20041;-83
2023/10/31 04:12:44;;;;;;;5.75;2.05;;;10.20;99.90;;;;;;4873135;29;20044;-84
2023/10/31 04:15:10;;;;;;;7.32;2.40;;;10.20;99.90;;;;;;4888062;29;20562;-84
2023/10/31 04:17:36;;;;;;;7.07;2.50;;;10.20;99.90;;;;;;4873403;29;20658;-83
2023/10/31 04:20:02;;;;;;;6.35;2.20;;;10.20;99.90;;;;;;4842501;29;20500;-83
2023/10/31 04:22:27;;;;;;;6.28;2.08;;;10.20;99.90;;;;;;4858886;29;20032;-84
2023/10/31 04:24:53;;;;;;;6.03;2.10;;;10.20;99.90;;;;;;4858150;29;20418;-84
2023/10/31 04:27:19;;;;;;;6.57;2.13;;;10.30;99.90;;;;;;4855768;29;20077;-83
2023/10/31 04:29:45;;;;;;;5.97;2.20;;;10.30;99.90;;;;;;4859306;29;20045;-83
2023/10/31 04:32:11;;;;;;;5.47;2.05;;;10.30;99.90;;;;;;4859580;29;20057;-83
2023/10/31 04:34:37;;;;;;;7.55;2.30;;;10.30;99.90;;;;;;4876252;29;20049;-83
2023/10/31 04:37:02;;;;;;;6.20;2.20;;;10.30;99.90;;;;;;4860947;29;20083;-83
2023/10/31 04:39:28;;;;;;;6.18;2.08;;;10.30;99.90;;;;;;4830817;29;20520;-83
2023/10/31 04:41:54;;;;;;;6.05;2.03;;;10.30;99.90;;;;;;4876682;29;20044;-83
2023/10/31 04:44:20;;;;;;;4.70;2.10;;;10.40;99.90;;;;;;4857205;29;20196;-83
2023/10/31 04:46:45;;;;;;;5.60;1.95;;;10.30;99.90;;;;;;4871875;29;20047;-82
2023/10/31 04:49:11;;;;;;;5.45;1.67;;;10.30;99.90;;;;;;4860449;29;20072;-82
2023/10/31 04:51:37;;;;;;;5.28;1.83;;;10.30;99.90;;;;;;4869222;29;20048;-83
2023/10/31 04:54:04;;;;;;;7.93;1.95;;;10.40;99.90;;;;;;4846008;29;20037;-82
2023/10/31 04:56:30;;;;;;;4.70;1.80;;;10.30;99.90;;;;;;4858612;29;20080;-83
2023/10/31 04:58:56;;;;;;;6.55;1.80;;;10.30;99.90;;;;;;4876006;29;20127;-84
2023/10/31 05:01:21;;;;;;;3.85;1.60;;;10.30;99.90;;;;;;4891148;29;20072;-84
2023/10/31 05:03:47;;;;;;;4.07;1.52;;;10.30;99.90;;;;;;4860175;29;20530;-83
2023/10/31 05:06:13;;;;;;;4.55;1.80;;;10.30;99.90;;;;;;4889069;29;20581;-83
2023/10/31 05:08:38;;;;;;;4.53;1.60;;;10.30;99.90;;;;;;4844479;29;20044;-83
2023/10/31 05:11:04;;;;;;;4.28;1.70;;;10.30;99.90;;;;;;4876403;29;20120;-83
2023/10/31 05:13:30;;;;;;;3.35;1.50;;;10.30;99.90;;;;;;4845771;29;20052;-83
2023/10/31 05:15:56;;;;;;;5.47;1.63;;;10.30;99.90;;;;;;4855228;29;20542;-82
2023/10/31 05:18:22;;;;;;;6.13;1.80;;;10.30;99.90;;;;;;4872692;29;20045;-83
2023/10/31 05:20:47;;;;;;;7.40;2.00;;;10.30;99.90;;;;;;4854420;29;20092;-83
2023/10/31 05:23:13;;;;;;;4.82;1.77;;;10.30;99.90;;;;;;4853768;29;20045;-82
2023/10/31 05:25:39;;;;;;;5.38;1.73;;;10.40;99.90;;;;;;4892061;29;20083;-83
2023/10/31 05:28:05;;;;;;;5.90;1.48;;;10.30;99.90;;;;;;4873042;29;20033;-83
2023/10/31 05:30:31;;;;;;;3.80;1.48;;;10.40;99.90;;;;;;4872981;29;20538;-82
2023/10/31 05:32:57;;;;;;;4.53;1.50;;;10.30;99.90;;;;;;4854587;29;20193;-83
2023/10/31 05:35:23;;;;;;;3.50;1.10;;;10.40;99.90;;;;;;4840506;29;20041;-82
2023/10/31 05:37:49;;;;;;;1.85;0.98;;;10.40;99.90;;;;;;4854937;29;20516;-82
2023/10/31 05:40:16;;;;;;;4.13;1.25;;;10.40;99.90;;;;;;4857587;29;20036;-82
2023/10/31 05:42:42;;;;;;;1.80;1.00;;;10.40;99.90;;;;;;4842453;29;20045;-82
2023/10/31 05:45:08;;;;;;;4.35;1.45;;;10.40;99.90;;;;;;4809371;29;20049;-82
2023/10/31 05:47:34;;;;;;;3.15;1.10;;;10.40;99.90;;;;;;4852629;29;20044;-83
2023/10/31 05:49:59;;;;;;;3.83;0.90;;;10.30;99.90;;;;;;4855457;29;20423;-82
2023/10/31 05:52:32;;;;;;;1.13;0.90;;;10.30;99.90;;;;;;4873454;29;20041;-82
2023/10/31 05:54:58;;;;;;;1.77;0.90;;;10.30;99.90;;;;;;4856989;29;20046;-81
2023/10/31 05:57:24;;;;;;;1.48;0.90;;;10.30;99.90;;;;;;4858873;29;20522;-82
2023/10/31 05:59:49;;;;;;;1.73;0.80;;;10.30;99.90;;;;;;4873681;29;20060;-82
2023/10/31 06:02:16;;;;;;;3.50;1.20;;;10.30;99.90;;;;;;4858317;29;20049;-81
2023/10/31 06:04:42;;;;;;;2.97;1.13;;;10.30;99.90;;;;;;4842788;29;20048;-81
2023/10/31 06:07:07;;;;;;;1.50;1.15;;;10.30;99.90;;;;;;4827888;29;20043;-81
2023/10/31 06:09:33;;;;;;;3.47;1.20;;;10.30;99.90;;;;;;4824007;29;20298;-81
2023/10/31 06:12:00;;;;;;;2.30;1.25;;;10.30;99.90;;;;;;4852311;29;20045;-81
2023/10/31 06:14:25;;;;;;;2.25;0.82;;;10.30;99.90;;;;;;4867140;29;20032;-81
2023/10/31 06:16:51;;;;;;;3.22;1.20;;;10.40;99.90;;;;;;4840497;29;20040;-81
2023/10/31 06:19:17;;;;;;;2.05;1.08;;;10.30;99.90;;;;;;4858015;29;20041;-80
2023/10/31 06:21:43;;;;;;;1.42;0.93;;;10.40;99.90;;;;;;4827429;29;20482;-81
2023/10/31 06:24:09;;;;;;;2.28;0.90;;;10.30;99.90;;;;;;4851755;29;20048;-82
2023/10/31 06:26:35;;;;;;;2.30;0.98;;;10.40;99.90;;;;;;4858949;29;20076;-81
2023/10/31 06:29:01;;;;;;;1.10;1.00;;;10.40;99.90;;;;;;4860089;29;20100;-81
2023/10/31 06:31:26;;;;;;;3.10;0.93;;;10.30;99.90;;;;;;4871898;29;20053;-81
2023/10/31 06:33:52;;;;;;;2.72;1.00;;;10.40;99.90;;;;;;4874357;29;20048;-80
2023/10/31 06:36:19;;;;;;;2.67;1.00;;;10.30;99.90;;;;;;4889262;29;20048;-81
2023/10/31 06:38:45;;;;;;;3.25;1.10;;;10.40;99.90;;;;;;4887759;29;20453;-81
2023/10/31 06:41:11;;;;;;;2.35;1.30;;;10.40;99.90;;;;;;4857356;29;20048;-80
2023/10/31 06:43:36;;;;;;;2.03;1.02;;;10.40;99.90;;;;;;4890418;29;20044;-80
2023/10/31 06:46:04;;;;;;;2.72;1.20;;;10.40;99.90;;;;;;4860745;29;20080;-80
2023/10/31 06:48:29;;;;;;;3.42;1.20;;;10.40;99.90;;;;;;4842477;29;20032;-80
2023/10/31 06:50:55;;;;;;;2.95;1.10;;;10.40;99.90;;;;;;4874942;29;20055;-80
2023/10/31 06:53:21;;;;;;;3.30;1.30;;;10.40;99.90;;;;;;4874220;29;20085;-80
2023/10/31 06:55:47;;;;;;;3.90;1.45;;;10.40;99.90;;;;;;4874753;29;20040;-80
2023/10/31 06:58:13;;;;;;;3.45;1.33;;;10.50;99.90;;;;;;4891296;29;20551;-80
2023/10/31 07:00:38;;;;;;;3.05;1.30;;;10.40;99.90;;;;;;4874147;29;20071;-80
2023/10/31 07:03:08;;;;;;;4.82;1.50;;;10.40;99.90;;;;;;4850810;29;20053;-80
2023/10/31 07:05:35;;;;;;;5.90;1.40;;;10.40;99.90;;;;;;4852785;29;20045;-80
2023/10/31 07:08:03;;;;;;;3.92;1.55;;;10.50;99.90;;;;;;4873807;29;20064;-80
2023/10/31 07:10:28;;;;;;;4.95;1.70;;;10.50;99.90;;;;;;4874815;29;20036;-80
2023/10/31 07:12:54;;;;;;;3.45;1.45;;;10.50;99.90;;;;;;4855469;29;20388;-80
2023/10/31 07:15:21;;;;;;;4.30;1.58;;;10.50;99.90;;;;;;4889640;29;20104;-80
2023/10/31 07:17:47;;;;;;;4.60;1.70;;;10.50;99.90;;;;;;4856682;29;20044;-80
2023/10/31 07:20:12;;;;;;;4.68;1.70;;;10.50;99.90;;;;;;4872520;29;20059;-80
2023/10/31 07:22:39;;;;;;;4.95;1.73;;;10.50;99.90;;;;;;4874863;29;20123;-80
2023/10/31 07:25:06;;;;;;;4.40;1.73;;;10.50;99.90;;;;;;4888792;29;20101;-80
2023/10/31 07:27:32;;;;;;;5.50;1.67;;;10.50;99.90;;;;;;4857822;29;20047;-80
2023/10/31 07:29:58;;;;;;;4.18;1.52;;;10.60;99.90;;;;;;4851878;29;20040;-80
2023/10/31 07:32:25;;;;;;;4.15;1.70;;;10.60;99.90;;;;;;4855888;29;20085;-80
2023/10/31 07:34:52;;;;;;;5.30;1.77;;;10.60;99.90;;;;;;4876901;29;20061;-80
2023/10/31 07:37:18;;;;;;;3.53;1.50;;;10.60;99.90;;;;;;4853350;29;20135;-80
2023/10/31 07:39:43;;;;;;;5.72;1.70;;;10.60;99.90;;;;;;4863080;29;20507;-80
2023/10/31 07:42:09;;;;;;;3.50;1.58;;;10.60;99.90;;;;;;4863679;29;20047;-80
2023/10/31 07:44:35;;;;;;;4.97;1.92;;;10.60;99.90;;;;;;4857073;29;20137;-80
2023/10/31 07:47:01;;;;;;;4.47;1.60;;;10.60;99.90;;;;;;4861879;29;20053;-80
2023/10/31 07:49:27;;;;;;;4.38;1.73;;;10.60;99.90;;;;;;4865056;29;20029;-80
2023/10/31 07:51:53;;;;;;;6.20;1.80;;;10.70;99.90;;;;;;4860760;29;20135;-80
2023/10/31 07:54:19;;;;;;;5.90;2.15;;;10.70;99.90;;;;;;4865850;29;20411;-80
2023/10/31 07:56:45;;;;;;;4.40;1.80;;;10.70;99.90;;;;;;4860030;29;20109;-80
2023/10/31 07:59:11;;;;;;;5.63;1.70;;;10.70;99.90;;;;;;4858635;29;20483;-80
2023/10/31 08:01:37;;;;;;;4.38;1.80;;;10.80;99.90;;;;;;4858228;29;20051;-80
2023/10/31 08:04:02;;;;;;;5.10;1.70;;;10.80;99.90;;;;;;4876476;29;20045;-80
2023/10/31 08:06:28;;;;;;;3.47;1.55;;;10.80;99.90;;;;;;4847399;29;20427;-80
2023/10/31 08:08:54;;;;;;;4.82;1.70;;;10.80;99.90;;;;;;4867043;29;20447;-80
2023/10/31 08:11:20;;;;;;;3.13;1.40;;;10.80;99.90;;;;;;4847956;29;20095;-80
2023/10/31 08:13:46;;;;;;;4.18;1.50;;;10.90;99.90;;;;;;4835812;29;20044;-80
2023/10/31 08:16:20;;;;;;;5.00;1.67;;;10.90;99.90;;;;;;4863403;29;20531;-80
2023/10/31 08:18:46;;;;;;;3.55;1.40;;;10.90;99.90;;;;;;4867445;29;20037;-80
2023/10/31 08:21:12;;;;;;;5.45;1.50;;;10.90;99.90;;;;;;4867527;29;20056;-80
2023/10/31 08:23:38;;;;;;;6.00;1.30;;;11.00;99.90;;;;;;4862497;29;20049;-80
2023/10/31 08:26:04;;;;;;;3.25;1.30;;;11.00;99.90;;;;;;4854208;29;20051;-80
2023/10/31 08:28:30;;;;;;;3.42;1.33;;;11.10;99.90;;;;;;4854694;29;20033;-80
2023/10/31 08:30:57;;;;;;;5.40;1.48;;;11.20;99.90;;;;;;4848565;29;20072;-80
2023/10/31 08:33:23;;;;;;;3.90;1.40;;;11.20;99.90;;;;;;4876687;29;20067;-80
2023/10/31 08:35:49;;;;;;;6.18;1.77;;;11.30;99.90;;;;;;4858098;29;20048;-80
2023/10/31 08:38:15;;;;;;;2.58;1.10;;;11.30;99.90;;;;;;4874166;29;20092;-80
2023/10/31 08:40:41;;;;;;;3.17;1.20;;;11.30;99.90;;;;;;4876562;29;20041;-80
2023/10/31 08:43:07;;;;;;;3.25;1.25;;;11.30;99.90;;;;;;4891441;29;20052;-80
2023/10/31 08:45:33;;;;;;;3.33;1.10;;;11.30;99.90;;;;;;4830653;29;20045;-80
2023/10/31 08:48:00;;;;;;;3.90;1.30;;;11.30;99.90;;;;;;4857623;29;20049;-79
2023/10/31 08:50:25;;;;;;;4.07;1.20;;;11.30;99.90;;;;;;4876767;29;20044;-80
2023/10/31 08:52:51;;;;;;;3.90;1.20;;;11.30;99.90;;;;;;4871853;29;20537;-80
2023/10/31 08:55:17;;;;;;;5.40;1.40;;;11.40;99.90;;;;;;4877064;29;20044;-80
2023/10/31 08:57:43;;;;;;;4.65;1.40;;;11.40;99.90;;;;;;4887733;29;20139;-80
2023/10/31 09:00:09;;;;;;;5.22;1.33;;;11.40;99.90;;;;;;4874371;29;20072;-80
2023/10/31 09:02:35;;;;;;;5.45;1.52;;;11.50;99.90;;;;;;4860658;29;20375;-80
2023/10/31 09:05:01;;;;;;;2.90;1.02;;;11.50;99.90;;;;;;4876581;29;20048;-80
2023/10/31 09:07:27;;;;;;;6.20;1.42;;;11.50;99.90;;;;;;4850676;29;20037;-80
2023/10/31 09:09:52;;;;;;;6.10;1.67;;;11.60;99.90;;;;;;4875079;29;20407;-81
2023/10/31 09:12:18;;;;;;;2.50;1.05;;;11.60;99.90;;;;;;4873751;29;20036;-81
2023/10/31 09:14:44;;;;;;;3.55;1.30;;;11.50;99.90;;;;;;4873036;29;20045;-80
2023/10/31 09:17:10;;;;;;;3.97;1.00;;;11.40;99.90;;;;;;4868420;29;20070;-82
2023/10/31 09:19:35;;;;;;;4.15;1.38;;;11.40;99.90;;;;;;4890299;29;20267;-81
2023/10/31 09:22:01;;;;;;;3.42;1.10;;;11.30;99.90;;;;;;4874039;29;20049;-80
2023/10/31 09:24:27;;;;;;;3.55;1.15;;;11.30;99.90;;;;;;4873662;29;20036;-81
2023/10/31 09:26:52;;;;;;;4.00;1.10;;;11.30;99.90;;;;;;4862833;29;20079;-81
2023/10/31 09:29:18;;;;;;;3.13;1.08;;;11.20;99.90;;;;;;4874974;29;20407;-80
2023/10/31 09:31:44;;;;;;;5.35;1.25;;;11.30;99.90;;;;;;4864163;29;20064;-81
2023/10/31 09:34:10;;;;;;;2.22;0.93;;;11.20;99.90;;;;;;4859729;29;20040;-81
2023/10/31 09:36:35;;;;;;;4.43;1.23;;;11.20;99.90;;;;;;4860400;29;20040;-80
2023/10/31 09:39:02;;;;;;;3.85;1.13;;;11.20;99.90;;;;;;4891449;29;20048;-81
2023/10/31 09:41:28;;;;;;;4.35;1.30;;;11.20;99.90;;;;;;4874194;29;20047;-80
2023/10/31 09:43:54;;;;;;;4.82;1.30;;;11.10;99.90;;;;;;4860252;29;20052;-80
2023/10/31 09:46:21;;;;;;;5.07;1.27;;;11.10;99.90;;;;;;4850131;29;20101;-81
2023/10/31 09:48:49;;;;;;;2.67;0.73;;;10.70;99.90;;;;;;4859850;29;20611;-80
2023/10/31 09:51:14;;;;;;;2.20;0.90;;;10.90;99.90;;;;;;4873082;29;20041;-80
2023/10/31 09:53:43;;;;;;;2.67;0.98;;;11.00;99.90;;;;;;4888723;29;20048;-80
2023/10/31 09:56:10;;;;;;;5.50;1.35;;;11.00;99.90;;;;;;4873342;29;20044;-80
2023/10/31 09:58:36;;;;;;;3.42;1.17;;;11.00;99.90;;;;;;4845164;29;20044;-80
2023/10/31 10:01:02;;;;;;;3.88;1.10;;;11.10;99.90;;;;;;4854044;29;20055;-81
2023/10/31 10:03:29;;;;;;;2.08;0.88;;;11.20;99.90;;;;;;4855301;29;20606;-81
2023/10/31 10:05:55;;;;;;;2.72;0.95;;;11.30;99.90;;;;;;4873312;29;20048;-81
2023/10/31 10:08:22;;;;;;;6.15;1.20;;;11.30;99.90;;;;;;4890043;29;20033;-81
2023/10/31 10:10:49;;;;;;;4.53;1.08;;;11.40;99.90;;;;;;4853168;29;20040;-80
2023/10/31 10:13:17;;;;;;;5.25;1.25;;;11.40;99.90;;;;;;4856941;29;20345;-80
2023/10/31 10:15:54;;;;;;;2.63;1.10;;;11.50;99.90;;;;;;4841471;29;20493;-81
2023/10/31 10:18:26;;;;;;;4.88;1.05;;;11.50;99.90;;;;;;4861563;29;20040;-81
2023/10/31 10:20:57;;;;;;;3.30;1.50;;;11.60;99.90;;;;;;4889882;29;20599;-81
2023/10/31 10:23:24;;;;;;;3.35;1.08;;;11.60;99.90;;;;;;4859906;29;20044;-81
2023/10/31 10:25:50;;;;;;;6.65;1.27;;;11.60;99.90;;;;;;4872178;29;20411;-81
2023/10/31 10:28:16;;;;;;;4.22;1.17;;;11.70;99.90;;;;;;4868203;29;20058;-81
2023/10/31 10:30:42;;;;;;;4.97;0.98;;;11.70;99.90;;;;;;4873715;29;20048;-81
2023/10/31 10:33:07;;;;;;;5.18;1.30;;;11.70;99.90;;;;;;4889692;29;20080;-81
2023/10/31 10:35:34;;;;;;;2.17;0.80;;;11.70;99.90;;;;;;4873307;29;20550;-81
2023/10/31 10:38:01;;;;;;;3.53;1.25;;;11.70;99.90;;;;;;4872857;29;20052;-81
2023/10/31 10:40:27;;;;;;;3.63;0.75;;;11.70;99.90;;;;;;4857948;29;20522;-81
2023/10/31 10:42:59;;;;;;;3.17;1.27;;;11.70;99.90;;;;;;4871392;29;20074;-81
2023/10/31 10:45:25;;;;;;;3.23;0.90;;;11.70;99.90;;;;;;4889647;29;20503;-81
2023/10/31 10:47:54;;;;;;;4.43;1.50;;;11.70;99.90;;;;;;4852225;29;20386;-81
2023/10/31 10:50:21;;;;;;;3.83;1.15;;;11.70;99.90;;;;;;4888268;29;20064;-81
2023/10/31 10:53:10;;;;;;;3.13;0.95;;;11.80;99.90;;;;;;4875005;29;20648;-81
2023/10/31 10:55:44;;;;;;;4.00;1.10;;;11.90;99.90;;;;;;4877288;29;20064;-81
2023/10/31 10:58:22;;;;;;;2.33;0.90;;;12.00;99.90;;;;;;4867272;29;20628;-82
2023/10/31 11:00:50;;;;;;;3.53;1.10;;;12.00;99.90;;;;;;4852953;29;20052;-81
2023/10/31 11:03:19;;;;;;;3.75;1.00;;;12.00;99.90;;;;;;4873884;29;20043;-81
2023/10/31 11:05:45;;;;;;;5.20;1.13;;;12.00;99.90;;;;;;4885916;29;20048;-81
2023/10/31 11:08:11;;;;;;;2.72;1.30;;;12.00;99.90;;;;;;4872847;29;20123;-81
2023/10/31 11:10:38;;;;;;;3.03;1.00;;;12.00;99.90;;;;;;4886646;29;20131;-81
2023/10/31 11:13:03;;;;;;;3.30;0.95;;;11.90;99.90;;;;;;4848474;29;20041;-81
2023/10/31 11:15:30;;;;;;;3.30;1.40;;;11.90;99.90;;;;;;4874416;29;20040;-81
2023/10/31 11:17:57;;;;;;;2.83;1.10;;;11.90;99.90;;;;;;4850169;29;20044;-81
2023/10/31 11:20:24;;;;;;;6.55;1.40;;;11.90;99.90;;;;;;4871000;29;20131;-81
2023/10/31 11:22:57;;;;;;;4.43;1.13;;;12.00;99.90;;;;;;4870912;29;20047;-82
2023/10/31 11:25:23;;;;;;;5.60;1.63;;;12.10;99.90;;;;;;4886086;29;20037;-81
2023/10/31 11:27:53;;;;;;;3.80;1.30;;;12.20;99.90;;;;;;4870437;29;20041;-81
2023/10/31 11:30:25;;;;;;;6.70;1.50;;;12.20;99.90;;;;;;4873789;29;20079;-81
2023/10/31 11:32:55;;;;;;;4.18;1.70;;;12.10;99.90;;;;;;4872586;29;20060;-81
2023/10/31 11:35:23;;;;;;;4.03;1.40;;;12.00;99.90;;;;;;4889408;29;20751;-81
2023/10/31 11:37:49;;;;;;;5.07;1.20;;;12.00;99.90;;;;;;4871150;29;20532;-81
2023/10/31 11:40:20;;;;;;;3.20;1.10;;;12.00;99.90;;;;;;4875720;29;20047;-81
2023/10/31 11:42:56;;;;;;;6.13;1.50;;;12.10;99.90;;;;;;4877920;29;20084;-81
2023/10/31 11:45:27;;;;;;;4.65;1.50;;;12.10;99.90;;;;;;4862871;29;20037;-80
2023/10/31 11:47:53;;;;;;;4.85;1.20;;;12.20;99.90;;;;;;4874683;29;20128;-81
2023/10/31 11:50:19;;;;;;;4.00;1.10;;;12.30;99.90;;;;;;4878729;29;20176;-81
2023/10/31 11:52:57;;;;;;;4.82;1.20;;;12.30;99.90;;;;;;4862928;29;20112;-81
2023/10/31 11:55:24;;;;;;;4.68;1.17;;;12.30;99.90;;;;;;4861623;29;20431;-81
2023/10/31 11:57:50;;;;;;;4.38;1.17;;;12.30;99.90;;;;;;4877174;29;20044;-81
2023/10/31 12:00:23;;;;;;;4.25;1.23;;;12.30;99.90;;;;;;4876467;29;20040;-81
2023/10/31 12:03:07;;;;;;;5.70;1.58;;;12.30;99.90;;;;;;4893515;29;20063;-81
2023/10/31 12:05:33;;;;;;;4.47;1.38;;;12.30;99.90;;;;;;4862895;29;20048;-81
2023/10/31 12:07:58;;;;;;;5.03;1.27;;;12.20;99.90;;;;;;4861940;29;20032;-81
2023/10/31 12:10:29;;;;;;;5.20;1.15;;;12.20;99.90;;;;;;4861385;29;20056;-81
2023/10/31 12:12:56;;;;;;;4.03;1.30;;;12.20;99.90;;;;;;4892942;29;20040;-81
2023/10/31 12:15:22;;;;;;;6.10;1.38;;;12.10;99.90;;;;;;4887501;29;20052;-81
2023/10/31 12:17:48;;;;;;;5.35;1.50;;;12.10;99.90;;;;;;4883759;29;20052;-81
2023/10/31 12:20:15;;;;;;;4.70;1.42;;;12.10;99.90;;;;;;4873142;29;20043;-81
2023/10/31 12:22:41;;;;;;;6.18;1.63;;;12.00;99.90;;;;;;4877084;29;20056;-80
2023/10/31 12:25:09;;;;;;;6.20;1.40;;;12.00;99.90;;;;;;4890301;29;20036;-81
2023/10/31 12:27:50;;;;;;;5.55;1.60;;;12.00;99.90;;;;;;4859624;29;20044;-81
2023/10/31 12:30:19;;;;;;;7.68;1.30;;;11.90;99.90;;;;;;4861728;29;20123;-81
2023/10/31 12:32:52;;;;;;;4.57;1.50;;;11.90;99.90;;;;;;4860605;29;20092;-81
2023/10/31 12:35:21;;;;;;;9.65;2.10;;;11.90;99.90;;;;;;4889803;29;20040;-81
2023/10/31 12:37:49;;;;;;;8.00;1.92;;;11.90;99.90;;;;;;4889858;29;20108;-81
2023/10/31 12:40:18;;;;;;;6.93;1.65;;;11.90;99.90;;;;;;4876587;29;20044;-81
2023/10/31 12:42:44;;;;;;;6.53;1.48;;;11.80;99.90;;;;;;4875419;29;20048;-81
2023/10/31 12:45:12;;;;;;;5.60;1.40;;;11.80;99.90;;;;;;4851892;29;20115;-81